createdAt,value
2018-12-21T00:01:13.196Z,77.00
2018-12-21T00:03:40.834Z,76.80
2018-12-21T00:06:08.321Z,76.90
2018-12-21T00:08:35.973Z,77.00
2018-12-21T00:11:03.466Z,76.90
2018-12-21T00:13:30.955Z,77.00
2018-12-21T00:15:58.495Z,77.10
2018-12-21T00:18:25.989Z,77.00
2018-12-21T00:20:53.477Z,77.00
2018-12-21T00:23:21.596Z,77.00
2018-12-21T00:25:49.106Z,77.20
2018-12-21T00:28:16.602Z,77.20
2018-12-21T00:30:43.497Z,77.30
2018-12-21T00:33:16.513Z,77.40
2018-12-21T00:35:49.506Z,77.30
2018-12-21T00:38:22.580Z,77.50
2018-12-21T00:40:55.613Z,77.50
2018-12-21T00:43:34.604Z,77.40
2018-12-21T00:46:07.905Z,77.50
2018-12-21T00:48:35.497Z,77.50
2018-12-21T00:51:03.237Z,77.50
2018-12-21T00:53:30.740Z,77.60
2018-12-21T00:55:58.214Z,77.70
2018-12-21T00:58:25.816Z,77.70
2018-12-21T01:00:53.284Z,77.80
2018-12-21T01:03:20.816Z,77.80
2018-12-21T01:05:48.384Z,78.70
2018-12-21T01:08:15.970Z,78.00
2018-12-21T01:10:43.597Z,78.20
2018-12-21T01:13:12.017Z,78.20
2018-12-21T01:15:39.615Z,78.50
2018-12-21T01:18:07.207Z,78.20
2018-12-21T01:20:34.693Z,78.10
2018-12-21T01:23:02.185Z,78.20
2018-12-21T01:25:29.683Z,78.10
2018-12-21T01:27:57.157Z,78.00
2018-12-21T01:30:24.669Z,78.20
2018-12-21T01:32:52.157Z,78.20
2018-12-21T01:35:19.665Z,78.30
2018-12-21T01:37:47.137Z,78.60
2018-12-21T01:40:14.625Z,78.40
2018-12-21T01:42:42.130Z,78.40
2018-12-21T01:45:09.639Z,78.50
2018-12-21T01:47:37.145Z,78.50
2018-12-21T01:50:04.864Z,78.60
2018-12-21T01:52:32.346Z,78.50
2018-12-21T01:54:59.830Z,78.60
2018-12-21T01:57:27.319Z,78.70
2018-12-21T01:59:54.795Z,78.70
2018-12-21T02:02:22.266Z,78.60
2018-12-21T02:04:49.769Z,78.60
2018-12-21T02:07:17.235Z,78.80
2018-12-21T02:09:44.735Z,78.90
2018-12-21T02:12:12.217Z,78.80
2018-12-21T02:14:39.729Z,79.00
2018-12-21T02:17:07.226Z,78.90
2018-12-21T02:19:34.717Z,79.00
2018-12-21T02:22:02.216Z,78.90
2018-12-21T02:24:29.741Z,78.90
2018-12-21T02:26:57.235Z,79.00
2018-12-21T02:29:24.735Z,79.00
2018-12-21T02:31:52.223Z,79.10
2018-12-21T02:34:19.710Z,79.00
2018-12-21T02:36:47.226Z,79.10
2018-12-21T02:39:14.714Z,79.10
2018-12-21T02:41:42.197Z,79.00
2018-12-21T02:44:09.691Z,79.00
2018-12-21T02:46:37.170Z,79.10
2018-12-21T02:49:04.750Z,79.10
2018-12-21T02:51:32.229Z,79.10
2018-12-21T02:53:59.734Z,79.00
2018-12-21T02:56:27.220Z,79.00
2018-12-21T02:58:54.694Z,79.20
2018-12-21T03:01:22.174Z,79.50
2018-12-21T03:03:49.667Z,79.40
2018-12-21T03:06:17.141Z,79.10
2018-12-21T03:08:44.613Z,79.00
2018-12-21T03:11:12.182Z,79.10
2018-12-21T03:13:39.665Z,79.10
2018-12-21T03:16:07.170Z,79.40
2018-12-21T03:18:35.142Z,79.30
2018-12-21T03:21:02.610Z,79.20
2018-12-21T03:23:30.105Z,80.00
2018-12-21T03:25:57.596Z,79.20
2018-12-21T03:28:25.094Z,79.30
2018-12-21T03:30:52.612Z,79.20
2018-12-21T03:33:20.199Z,79.30
2018-12-21T03:35:47.797Z,79.40
2018-12-21T03:38:15.266Z,79.30
2018-12-21T03:40:42.793Z,79.40
2018-12-21T03:43:10.298Z,79.40
2018-12-21T03:45:37.773Z,79.40
2018-12-21T03:48:05.284Z,79.30
2018-12-21T03:50:32.862Z,79.40
2018-12-21T03:53:00.344Z,79.60
2018-12-21T03:55:27.905Z,79.50
2018-12-21T03:57:55.382Z,79.40
2018-12-21T04:00:22.900Z,80.10
2018-12-21T04:02:50.541Z,79.50
2018-12-21T04:05:18.115Z,79.60
2018-12-21T04:07:45.605Z,79.50
2018-12-21T04:10:13.104Z,79.60
2018-12-21T04:12:40.611Z,79.50
2018-12-21T04:15:08.221Z,79.50
2018-12-21T04:17:35.721Z,79.40
2018-12-21T04:20:03.243Z,79.50
2018-12-21T04:22:34.176Z,79.50
2018-12-21T04:25:00.213Z,79.50
2018-12-21T04:27:27.689Z,79.50
2018-12-21T04:29:56.215Z,79.40
2018-12-21T04:32:23.774Z,79.70
2018-12-21T04:34:51.285Z,79.70
2018-12-21T04:37:18.850Z,79.90
2018-12-21T04:39:46.322Z,79.90
2018-12-21T04:42:13.825Z,79.80
2018-12-21T04:44:41.315Z,80.00
2018-12-21T04:47:08.821Z,79.80
2018-12-21T04:49:36.395Z,80.00
2018-12-21T04:52:03.911Z,79.90
2018-12-21T04:54:31.417Z,79.80
2018-12-21T04:56:58.974Z,79.70
2018-12-21T04:59:26.495Z,79.60
2018-12-21T05:01:53.981Z,79.80
2018-12-21T05:04:21.473Z,79.70
2018-12-21T05:06:48.970Z,80.00
2018-12-21T05:09:16.422Z,79.70
2018-12-21T05:11:43.913Z,79.90
2018-12-21T05:14:11.401Z,80.00
2018-12-21T05:16:38.976Z,80.00
2018-12-21T05:19:06.476Z,80.10
2018-12-21T05:21:33.973Z,80.00
2018-12-21T05:24:01.461Z,79.90
2018-12-21T05:26:29.087Z,80.10
2018-12-21T05:28:56.662Z,80.00
2018-12-21T05:31:28.215Z,80.10
2018-12-21T05:33:53.774Z,80.00
2018-12-21T05:36:21.272Z,80.00
2018-12-21T05:38:48.774Z,80.10
2018-12-21T05:41:16.274Z,80.00
2018-12-21T05:43:43.759Z,80.00
2018-12-21T05:46:12.304Z,79.90
2018-12-21T05:48:39.813Z,80.00
2018-12-21T05:51:07.303Z,80.00
2018-12-21T05:53:34.782Z,80.10
2018-12-21T05:56:02.294Z,80.90
2018-12-21T05:58:29.772Z,80.20
2018-12-21T06:00:57.254Z,80.20
2018-12-21T06:03:24.738Z,80.10
2018-12-21T06:05:52.222Z,80.00
2018-12-21T06:08:19.702Z,80.00
2018-12-21T06:10:47.296Z,80.00
2018-12-21T06:13:14.773Z,80.00
2018-12-21T06:15:42.265Z,80.00
2018-12-21T06:18:09.750Z,80.10
2018-12-21T06:20:37.246Z,80.10
2018-12-21T06:23:09.468Z,80.10
2018-12-21T06:25:34.222Z,80.00
2018-12-21T06:28:01.772Z,80.10
2018-12-21T06:30:29.231Z,80.10
2018-12-21T06:32:56.762Z,80.10
2018-12-21T06:35:24.243Z,80.20
2018-12-21T06:37:51.726Z,80.10
2018-12-21T06:40:19.229Z,80.10
2018-12-21T06:42:46.786Z,80.10
2018-12-21T06:45:14.271Z,80.10
2018-12-21T06:47:41.784Z,80.10
2018-12-21T06:50:09.264Z,80.10
2018-12-21T06:52:36.834Z,80.10
2018-12-21T06:55:04.501Z,80.10
2018-12-21T06:57:31.996Z,80.10
2018-12-21T06:59:59.609Z,80.00
2018-12-21T07:02:33.849Z,79.90
2018-12-21T07:05:01.366Z,79.80
2018-12-21T07:07:28.893Z,79.80
2018-12-21T07:09:58.521Z,79.80
2018-12-21T07:12:26.009Z,79.70
2018-12-21T07:14:53.515Z,79.80
2018-12-21T07:17:21.030Z,79.80
2018-12-21T07:19:48.553Z,79.70
2018-12-21T07:24:55.714Z,79.80
2018-12-21T07:27:23.198Z,79.60
2018-12-21T07:29:50.768Z,79.60
2018-12-21T07:32:18.261Z,79.70
2018-12-21T07:34:45.838Z,79.80
2018-12-21T07:37:13.348Z,79.60
2018-12-21T07:39:40.820Z,79.70
2018-12-21T07:42:08.286Z,79.70
2018-12-21T07:44:35.749Z,79.70
2018-12-21T07:47:03.251Z,79.60
2018-12-21T07:49:30.738Z,79.50
2018-12-21T07:51:58.734Z,79.50
2018-12-21T07:54:26.344Z,79.50
2018-12-21T07:56:53.824Z,79.40
2018-12-21T07:59:21.329Z,79.40
2018-12-21T08:01:49.015Z,79.40
2018-12-21T08:04:16.531Z,79.20
2018-12-21T08:06:44.652Z,79.30
2018-12-21T08:09:12.169Z,79.30
2018-12-21T08:11:39.791Z,79.30
2018-12-21T08:14:08.376Z,79.30
2018-12-21T08:16:35.886Z,79.30
2018-12-21T08:19:03.423Z,79.70
2018-12-21T08:21:30.959Z,79.20
2018-12-21T08:23:58.470Z,79.20
2018-12-21T08:26:25.978Z,79.40
2018-12-21T08:28:53.496Z,79.20
2018-12-21T08:31:20.961Z,79.20
2018-12-21T08:33:48.474Z,79.20
2018-12-21T08:36:15.965Z,79.20
2018-12-21T08:38:43.463Z,79.20
2018-12-21T08:41:10.972Z,79.20
2018-12-21T08:43:38.466Z,79.10
2018-12-21T08:46:06.005Z,79.10
2018-12-21T08:48:33.505Z,79.00
2018-12-21T08:51:01.026Z,79.10
2018-12-21T08:53:28.535Z,79.10
2018-12-21T08:55:58.186Z,79.10
2018-12-21T08:58:27.893Z,79.00
2018-12-21T09:00:55.385Z,79.10
2018-12-21T09:03:22.883Z,79.00
2018-12-21T09:05:50.399Z,79.00
2018-12-21T09:08:18.002Z,79.10
2018-12-21T09:10:45.450Z,79.00
2018-12-21T09:13:12.925Z,79.00
2018-12-21T09:15:40.407Z,79.00
2018-12-21T09:18:07.934Z,78.90
2018-12-21T09:20:35.404Z,78.90
2018-12-21T09:23:02.912Z,78.90
2018-12-21T09:25:30.381Z,79.00
2018-12-21T09:28:04.294Z,79.00
2018-12-21T09:30:31.771Z,78.90
2018-12-21T09:32:59.233Z,79.00
2018-12-21T09:35:26.717Z,78.90
2018-12-21T09:37:54.222Z,78.90
2018-12-21T09:40:21.702Z,78.90
2018-12-21T09:42:49.201Z,78.80
2018-12-21T09:45:23.108Z,78.80
2018-12-21T09:47:50.572Z,78.70
2018-12-21T09:50:18.064Z,78.70
2018-12-21T09:52:45.562Z,78.70
2018-12-21T09:55:13.125Z,78.60
2018-12-21T09:57:40.654Z,78.50
2018-12-21T10:00:09.644Z,78.50
2018-12-21T10:02:37.149Z,78.60
2018-12-21T10:05:05.246Z,78.50
2018-12-21T10:07:32.734Z,78.50
2018-12-21T10:10:00.257Z,78.60
2018-12-21T10:12:27.749Z,78.50
2018-12-21T10:14:55.258Z,78.60
2018-12-21T10:17:22.746Z,78.50
2018-12-21T10:19:50.322Z,78.50
2018-12-21T10:22:17.963Z,78.60
2018-12-21T10:24:45.445Z,78.50
2018-12-21T10:27:13.025Z,78.60
2018-12-21T10:29:40.519Z,78.60
2018-12-21T10:32:08.094Z,78.50
2018-12-21T10:34:35.587Z,78.50
2018-12-21T10:37:03.070Z,78.60
2018-12-21T10:39:30.542Z,78.50
2018-12-21T10:41:58.066Z,78.50
2018-12-21T10:44:25.538Z,78.60
2018-12-21T10:46:53.097Z,78.50
2018-12-21T10:49:20.567Z,78.50
2018-12-21T10:51:48.058Z,78.40
2018-12-21T10:54:15.546Z,78.40
2018-12-21T10:56:43.018Z,78.40
2018-12-21T10:59:10.503Z,78.40
2018-12-21T11:01:37.977Z,78.40
2018-12-21T11:04:05.449Z,78.20
2018-12-21T11:06:32.926Z,78.30
2018-12-21T11:09:00.407Z,78.20
2018-12-21T11:11:27.903Z,78.20
2018-12-21T11:13:55.394Z,78.20
2018-12-21T11:16:22.899Z,78.10
2018-12-21T11:18:50.397Z,78.10
2018-12-21T11:21:17.976Z,78.20
2018-12-21T11:23:45.433Z,78.20
2018-12-21T11:26:12.948Z,78.10
2018-12-21T11:28:40.441Z,78.00
2018-12-21T11:31:07.950Z,78.10
2018-12-21T11:33:35.477Z,78.00
2018-12-21T11:36:02.991Z,77.80
2018-12-21T11:38:30.467Z,77.80
2018-12-21T11:40:58.161Z,77.80
2018-12-21T11:43:25.637Z,77.80
2018-12-21T11:45:53.174Z,77.80
2018-12-21T11:48:20.659Z,77.70
2018-12-21T11:50:48.174Z,77.60
2018-12-21T11:53:19.261Z,77.70
2018-12-21T11:55:46.753Z,77.60
2018-12-21T11:58:14.277Z,77.40
2018-12-21T12:00:41.773Z,77.30
2018-12-21T12:03:09.326Z,77.00
2018-12-21T12:05:36.808Z,76.90
2018-12-21T12:08:04.330Z,76.90
2018-12-21T12:10:31.811Z,76.70
2018-12-21T12:12:59.322Z,77.40
2018-12-21T12:15:28.649Z,76.90
2018-12-21T12:17:56.591Z,76.80
2018-12-21T12:20:24.386Z,76.70
2018-12-21T12:22:51.866Z,76.80
2018-12-21T12:25:19.371Z,77.00
2018-12-21T12:27:46.846Z,77.10
2018-12-21T12:30:14.337Z,77.20
2018-12-21T12:32:41.825Z,77.30
2018-12-21T12:35:09.287Z,77.20
2018-12-21T12:37:36.804Z,77.20
2018-12-21T12:40:04.655Z,77.40
2018-12-21T12:42:32.132Z,77.30
2018-12-21T12:44:59.690Z,77.30
2018-12-21T12:47:27.152Z,77.50
2018-12-21T12:49:54.630Z,77.30
2018-12-21T12:52:22.130Z,77.30
2018-12-21T12:54:49.634Z,77.30
2018-12-21T12:57:17.141Z,77.30
2018-12-21T12:59:44.693Z,77.20
2018-12-21T13:02:12.166Z,77.30
2018-12-21T13:04:43.607Z,78.00
2018-12-21T13:07:11.053Z,77.70
2018-12-21T13:09:38.521Z,77.30
2018-12-21T13:12:05.986Z,77.30
2018-12-21T13:14:33.477Z,77.40
2018-12-21T13:17:00.946Z,77.40
2018-12-21T13:19:28.434Z,77.40
2018-12-21T13:21:55.910Z,77.30
2018-12-21T13:24:23.345Z,77.50
2018-12-21T13:26:50.831Z,77.40
2018-12-21T13:29:18.295Z,77.40
2018-12-21T13:31:49.975Z,77.30
2018-12-21T13:34:18.086Z,78.20
2018-12-21T13:36:45.728Z,77.20
2018-12-21T13:39:17.872Z,77.20
2018-12-21T13:41:48.786Z,77.20
2018-12-21T13:44:18.788Z,77.10
2018-12-21T13:46:47.496Z,77.20
2018-12-21T13:49:16.925Z,77.10
2018-12-21T13:51:45.385Z,77.30
2018-12-21T13:54:16.374Z,77.20
2018-12-21T13:56:45.880Z,77.10
2018-12-21T13:59:13.445Z,77.10
2018-12-21T14:01:40.981Z,77.20
2018-12-21T14:04:10.010Z,77.20
2018-12-21T14:06:38.524Z,77.10
2018-12-21T14:09:08.195Z,77.00
2018-12-21T14:11:44.045Z,77.10
2018-12-21T14:14:16.493Z,77.00
2018-12-21T14:16:44.801Z,76.90
2018-12-21T14:19:13.417Z,76.90
2018-12-21T14:21:45.278Z,76.90
2018-12-21T14:24:15.067Z,77.60
2018-12-21T14:26:43.503Z,77.00
2018-12-21T14:29:11.924Z,76.80
2018-12-21T14:31:41.257Z,76.90
2018-12-21T14:34:10.243Z,76.90
2018-12-21T14:36:37.760Z,76.30
2018-12-21T14:39:06.112Z,77.70
2018-12-21T14:41:51.666Z,76.70
2018-12-21T14:44:19.139Z,76.90
2018-12-21T14:46:46.897Z,77.10
2018-12-21T14:49:15.969Z,77.00
2018-12-21T14:51:46.141Z,76.90
2018-12-21T14:54:13.797Z,76.80
2018-12-21T14:56:44.716Z,76.80
2018-12-21T14:59:12.320Z,76.70
2018-12-21T15:01:44.046Z,76.70
2018-12-21T15:04:11.703Z,76.80
2018-12-21T15:06:39.361Z,76.80
2018-12-21T15:09:06.958Z,76.80
2018-12-21T15:11:34.626Z,76.80
2018-12-21T15:14:02.188Z,76.80
2018-12-21T15:16:29.789Z,76.70
2018-12-21T15:18:57.225Z,76.70
2018-12-21T15:21:24.719Z,76.80
2018-12-21T15:23:52.246Z,76.70
2018-12-21T15:26:19.735Z,76.70
2018-12-21T15:28:47.186Z,76.60
2018-12-21T15:31:14.739Z,76.60
2018-12-21T15:33:42.185Z,76.60
2018-12-21T15:36:09.764Z,76.70
2018-12-21T15:38:37.236Z,76.70
2018-12-21T15:41:04.746Z,76.60
2018-12-21T15:43:32.206Z,76.60
2018-12-21T15:45:59.704Z,76.50
2018-12-21T15:48:27.186Z,77.20
2018-12-21T15:50:54.686Z,76.30
2018-12-21T15:53:22.142Z,76.40
2018-12-21T15:55:54.753Z,76.40
2018-12-21T15:58:19.108Z,77.10
2018-12-21T16:00:46.614Z,76.30
2018-12-21T16:03:14.121Z,76.40
2018-12-21T16:05:41.747Z,76.50
2018-12-21T16:08:09.198Z,76.40
2018-12-21T16:10:36.655Z,76.40
2018-12-21T16:13:04.126Z,76.50
2018-12-21T16:15:31.614Z,76.60
2018-12-21T16:17:59.131Z,76.60
2018-12-21T16:20:26.634Z,76.60
2018-12-21T16:22:54.121Z,76.40
2018-12-21T16:25:21.640Z,76.20
2018-12-21T16:27:49.214Z,76.20
2018-12-21T16:30:16.744Z,76.30
2018-12-21T16:32:44.270Z,76.40
2018-12-21T16:35:11.755Z,76.30
2018-12-21T16:37:39.248Z,76.20
2018-12-21T16:40:08.558Z,76.10
2018-12-21T16:42:36.013Z,76.20
2018-12-21T16:45:03.490Z,76.20
2018-12-21T16:47:30.933Z,76.30
2018-12-21T16:49:58.429Z,76.30
2018-12-21T16:52:25.909Z,76.30
2018-12-21T16:54:53.357Z,76.40
2018-12-21T16:57:20.857Z,76.40
2018-12-21T16:59:48.318Z,76.40
2018-12-21T17:02:15.826Z,76.40
2018-12-21T17:04:43.331Z,76.40
2018-12-21T17:07:10.902Z,76.50
2018-12-21T17:09:38.377Z,76.40
2018-12-21T17:12:05.938Z,76.40
2018-12-21T17:14:33.438Z,76.50
2018-12-21T17:17:01.049Z,76.50
2018-12-21T17:19:28.502Z,76.50
2018-12-21T17:21:55.958Z,76.50
2018-12-21T17:24:23.422Z,76.40
2018-12-21T17:26:51.052Z,76.50
2018-12-21T17:29:18.578Z,76.50
2018-12-21T17:31:46.051Z,76.40
2018-12-21T17:34:13.526Z,76.50
2018-12-21T17:36:41.078Z,76.50
2018-12-21T17:39:08.642Z,76.40
2018-12-21T17:41:36.180Z,75.70
2018-12-21T17:44:03.658Z,76.50
2018-12-21T17:46:31.129Z,76.40
2018-12-21T17:48:58.582Z,76.50
2018-12-21T17:51:26.044Z,76.40
2018-12-21T17:53:53.669Z,76.40
2018-12-21T17:56:29.693Z,76.30
2018-12-21T17:58:50.642Z,76.30
2018-12-21T18:01:18.420Z,76.40
2018-12-21T18:04:03.919Z,76.40
2018-12-21T18:06:31.506Z,76.40
2018-12-21T18:08:58.993Z,76.30
2018-12-21T18:11:26.461Z,76.40
2018-12-21T18:13:53.929Z,76.30
2018-12-21T18:16:21.389Z,76.30
2018-12-21T18:18:48.854Z,76.30
2018-12-21T18:21:16.312Z,76.30
2018-12-21T18:23:45.194Z,76.20
2018-12-21T18:26:12.660Z,76.30
2018-12-21T18:28:40.154Z,76.20
2018-12-21T18:31:13.277Z,76.10
2018-12-21T18:33:42.074Z,76.00
2018-12-21T18:36:09.614Z,76.00
2018-12-21T18:38:37.190Z,76.00
2018-12-21T18:41:04.706Z,76.10
2018-12-21T18:43:32.193Z,76.10
2018-12-21T18:46:00.957Z,76.10
2018-12-21T18:48:28.422Z,76.10
2018-12-21T18:50:55.883Z,75.90
2018-12-21T18:53:23.390Z,75.90
2018-12-21T18:55:51.502Z,75.70
2018-12-21T18:58:19.098Z,75.80
2018-12-21T19:00:46.567Z,75.60
2018-12-21T19:03:14.035Z,75.00
2018-12-21T19:05:41.596Z,75.80
2018-12-21T19:08:09.098Z,75.50
2018-12-21T19:10:36.606Z,75.60
2018-12-21T19:13:06.198Z,75.60
2018-12-21T19:15:33.706Z,75.60
2018-12-21T19:18:01.190Z,75.50
2018-12-21T19:20:28.687Z,75.40
2018-12-21T19:22:56.181Z,75.40
2018-12-21T19:25:23.716Z,75.50
2018-12-21T19:27:51.207Z,75.20
2018-12-21T19:30:18.726Z,75.20
2018-12-21T19:32:46.201Z,74.80
2018-12-21T19:35:14.404Z,74.70
2018-12-21T19:37:41.936Z,74.70
2018-12-21T19:40:09.974Z,74.90
2018-12-21T19:42:37.760Z,75.90
2018-12-21T19:45:06.185Z,76.50
2018-12-21T19:47:33.707Z,77.00
2018-12-21T19:50:01.258Z,77.20
2018-12-21T19:52:28.801Z,77.30
2018-12-21T19:55:01.940Z,77.30
2018-12-21T19:57:29.497Z,77.40
2018-12-21T19:59:57.011Z,77.40
2018-12-21T20:02:24.526Z,77.40
2018-12-21T20:04:52.034Z,77.40
2018-12-21T20:07:19.518Z,77.40
2018-12-21T20:09:47.041Z,77.40
2018-12-21T20:12:14.529Z,77.40
2018-12-21T20:14:42.090Z,77.40
2018-12-21T20:17:09.561Z,77.30
2018-12-21T20:19:37.078Z,77.40
2018-12-21T20:22:04.659Z,77.50
2018-12-21T20:24:33.647Z,77.60
2018-12-21T20:27:13.051Z,77.60
2018-12-21T20:29:33.850Z,77.70
2018-12-21T20:32:01.352Z,77.60
2018-12-21T20:34:33.966Z,77.70
2018-12-21T20:37:01.643Z,77.70
2018-12-21T20:39:29.815Z,77.50
2018-12-21T20:41:58.034Z,77.80
2018-12-21T20:44:25.606Z,77.80
2018-12-21T20:46:58.579Z,77.70
2018-12-21T20:49:30.754Z,77.60
2018-12-21T20:51:58.218Z,77.60
2018-12-21T20:54:27.753Z,77.50
2018-12-21T20:56:57.411Z,77.40
2018-12-21T20:59:25.509Z,77.30
2018-12-21T21:01:53.178Z,77.50
2018-12-21T21:04:20.669Z,77.60
2018-12-21T21:06:48.255Z,77.70
2018-12-21T21:09:15.842Z,77.90
2018-12-21T21:11:43.392Z,77.90
2018-12-21T21:14:11.717Z,77.90
2018-12-21T21:16:39.228Z,78.00
2018-12-21T21:19:06.686Z,78.10
2018-12-21T21:21:34.231Z,78.20
2018-12-21T21:24:01.698Z,78.20
2018-12-21T21:26:29.826Z,78.30
2018-12-21T21:28:57.322Z,78.30
2018-12-21T21:31:25.909Z,78.40
2018-12-21T21:33:53.404Z,78.80
2018-12-21T21:36:20.961Z,78.40
2018-12-21T21:38:48.461Z,78.40
2018-12-21T21:41:15.995Z,78.50
2018-12-21T21:43:43.454Z,78.50
2018-12-21T21:46:10.993Z,78.60
2018-12-21T21:48:38.469Z,78.60
2018-12-21T21:51:05.973Z,78.70
2018-12-21T21:53:33.633Z,78.60
2018-12-21T21:56:01.252Z,78.70
2018-12-21T21:58:28.710Z,78.70
2018-12-21T22:00:56.202Z,78.70
2018-12-21T22:03:23.670Z,78.80
2018-12-21T22:05:51.550Z,78.90
2018-12-21T22:08:19.010Z,78.90
2018-12-21T22:10:46.514Z,78.90
2018-12-21T22:13:13.966Z,79.00
2018-12-21T22:15:41.456Z,79.00
2018-12-21T22:18:09.606Z,78.90
2018-12-21T22:20:37.133Z,78.90
2018-12-21T22:23:04.595Z,78.90
2018-12-21T22:25:32.109Z,79.60
2018-12-21T22:27:59.586Z,79.00
2018-12-21T22:30:27.069Z,79.00
2018-12-21T22:32:55.653Z,79.00
2018-12-21T22:35:23.159Z,79.00
2018-12-21T22:37:50.625Z,78.90
2018-12-21T22:40:18.129Z,78.80
2018-12-21T22:42:45.585Z,78.80
2018-12-21T22:45:13.111Z,78.80
2018-12-21T22:47:40.609Z,78.70
2018-12-21T22:50:08.609Z,78.50
2018-12-21T22:52:36.539Z,78.60
2018-12-21T22:55:04.101Z,78.60
2018-12-21T22:57:31.551Z,79.30
2018-12-21T22:59:59.121Z,78.60
2018-12-21T23:02:26.590Z,78.60
2018-12-21T23:04:54.050Z,78.50
2018-12-21T23:07:21.605Z,78.50
2018-12-21T23:09:49.058Z,78.60
2018-12-21T23:12:16.581Z,78.50
2018-12-21T23:14:44.046Z,78.60
2018-12-21T23:17:11.526Z,78.60
2018-12-21T23:19:38.982Z,78.40
2018-12-21T23:22:06.466Z,78.50
2018-12-21T23:24:33.930Z,78.50
2018-12-21T23:27:01.389Z,78.50
2018-12-21T23:29:28.852Z,78.50
2018-12-21T23:31:56.306Z,78.40
2018-12-21T23:34:23.770Z,78.50
2018-12-21T23:36:51.233Z,78.60
2018-12-21T23:39:18.694Z,78.60
2018-12-21T23:41:46.148Z,78.70
2018-12-21T23:44:13.600Z,78.70
2018-12-21T23:46:41.056Z,78.80
2018-12-21T23:49:08.510Z,78.70
2018-12-21T23:51:36.013Z,78.60
2018-12-21T23:54:03.483Z,78.70
2018-12-21T23:56:30.933Z,78.60
2018-12-21T23:58:58.395Z,78.60
